Terminal Aerodrome Forecast
Issued by NWS

Home | Current Version | Previous Version | Text Only | Print | Product List | Glossary On
Versions: 1 2 3 4 5 6 7 8 9 10 11 12 13 14 15 16 17 18 19 20
248
FTUS44 KSJT 050127 AAA
TAFSOA
TAF AMD
KSOA 050127Z 0501/0524 02006KT P6SM -RA SCT015 OVC050
      TEMPO 0501/0503 02006KT 4SM -RA BR BKN015
     FM050600 02004KT 4SM -RA BR OVC010
     FM050900 01003KT 2SM -RA BR OVC008
     FM051200 36003KT 3SM BR OVC007
     FM051800 26002KT P6SM OVC007
     FM052100 24006KT P6SM BKN025=

USA.gov is the U.S. government's official web portal to all federal, state and local government web resources and services.